FDX59 ENZV-EKBI
Flight info
| Callsign | FDX59 |
|---|---|
| Flight time | 0h 42m |
| Altitude | 31000 |
| Route | BIVKI P992 ELGIK DCT ODNEV |
| Aircraft | B738/M-L/C |
Departure
| Time | 2026-03-26 05:10 |
|---|---|
| Airport | Stavanger Airport, Sola (ENZV) |
Arrival
| Time | 2026-03-26 05:52 |
|---|---|
| Airport | Billund Airport (EKBI) |
| Time | Latitude | Longitude | Altitude | Speed | Heading |
|---|---|---|---|---|---|
| 2026-03-26 04:48 | 58.88574 | 5.63310 | 29 ft | 0 kts | 322° |
| 2026-03-26 04:57 | 58.88569 | 5.63318 | 29 ft | 2 kts | 321° |
| 2026-03-26 04:58 | 58.88553 | 5.63343 | 29 ft | 3 kts | 318° |
| 2026-03-26 04:58 | 58.88539 | 5.63370 | 28 ft | 3 kts | 313° |
| 2026-03-26 04:58 | 58.88526 | 5.63399 | 29 ft | 3 kts | 306° |
| 2026-03-26 04:58 | 58.88520 | 5.63415 | 30 ft | 1 kts | 304° |
| 2026-03-26 04:59 | 58.88519 | 5.63417 | 30 ft | 0 kts | 304° |
| 2026-03-26 05:02 | 58.88524 | 5.63375 | 29 ft | 8 kts | 270° |
| 2026-03-26 05:03 | 58.88513 | 5.63312 | 28 ft | 0 kts | 248° |
| 2026-03-26 05:03 | 58.88511 | 5.63306 | 28 ft | 0 kts | 244° |
| 2026-03-26 05:03 | 58.88489 | 5.63276 | 28 ft | 8 kts | 197° |
| 2026-03-26 05:03 | 58.88444 | 5.63325 | 28 ft | 8 kts | 111° |
| 2026-03-26 05:04 | 58.88408 | 5.63414 | 30 ft | 9 kts | 153° |
| 2026-03-26 05:04 | 58.88347 | 5.63435 | 30 ft | 10 kts | 176° |
| 2026-03-26 05:04 | 58.88269 | 5.63435 | 30 ft | 12 kts | 182° |
| 2026-03-26 05:04 | 58.88176 | 5.63431 | 29 ft | 14 kts | 179° |
| 2026-03-26 05:05 | 58.88070 | 5.63431 | 30 ft | 16 kts | 182° |
| 2026-03-26 05:05 | 58.87959 | 5.63382 | 31 ft | 16 kts | 202° |
| 2026-03-26 05:05 | 58.87901 | 5.63327 | 30 ft | 1 kts | 211° |
| 2026-03-26 05:05 | 58.87894 | 5.63319 | 30 ft | 2 kts | 208° |
| 2026-03-26 05:06 | 58.87871 | 5.63303 | 30 ft | 6 kts | 197° |
| 2026-03-26 05:06 | 58.87824 | 5.63292 | 30 ft | 9 kts | 182° |
| 2026-03-26 05:06 | 58.87743 | 5.63292 | 30 ft | 14 kts | 178° |
| 2026-03-26 05:06 | 58.87633 | 5.63296 | 30 ft | 17 kts | 179° |
| 2026-03-26 05:07 | 58.87596 | 5.63297 | 30 ft | 17 kts | 179° |
| 2026-03-26 05:07 | 58.87483 | 5.63300 | 30 ft | 16 kts | 179° |
| 2026-03-26 05:07 | 58.87375 | 5.63306 | 31 ft | 15 kts | 178° |
| 2026-03-26 05:07 | 58.87267 | 5.63308 | 30 ft | 16 kts | 178° |
| 2026-03-26 05:08 | 58.87160 | 5.63310 | 31 ft | 15 kts | 180° |
| 2026-03-26 05:08 | 58.87058 | 5.63320 | 30 ft | 14 kts | 167° |
| 2026-03-26 05:08 | 58.86975 | 5.63420 | 31 ft | 15 kts | 129° |
| 2026-03-26 05:08 | 58.86950 | 5.63604 | 35 ft | 14 kts | 93° |
| 2026-03-26 05:09 | 58.86970 | 5.63778 | 34 ft | 14 kts | 40° |
| 2026-03-26 05:09 | 58.87063 | 5.63802 | 34 ft | 13 kts | 1° |
| 2026-03-26 05:09 | 58.87164 | 5.63802 | 34 ft | 29 kts | 359° |
| 2026-03-26 05:09 | 58.87695 | 5.63778 | 36 ft | 120 kts | 358° |
| 2026-03-26 05:10 | 58.88699 | 5.63741 | 570 ft | 154 kts | 351° |
| 2026-03-26 05:10 | 58.89720 | 5.63655 | 2068 ft | 143 kts | 351° |
| 2026-03-26 05:10 | 58.90792 | 5.63621 | 2909 ft | 168 kts | 353° |
| 2026-03-26 05:10 | 58.92076 | 5.63587 | 3316 ft | 196 kts | 355° |
| 2026-03-26 05:11 | 58.93489 | 5.63556 | 3979 ft | 214 kts | 355° |
| 2026-03-26 05:11 | 58.95035 | 5.63513 | 4726 ft | 229 kts | 356° |
| 2026-03-26 05:11 | 58.96653 | 5.63462 | 5876 ft | 234 kts | 356° |
| 2026-03-26 05:11 | 58.98289 | 5.63403 | 7107 ft | 236 kts | 355° |
| 2026-03-26 05:12 | 58.99950 | 5.63337 | 8239 ft | 242 kts | 355° |
| 2026-03-26 05:12 | 59.01654 | 5.63267 | 9367 ft | 248 kts | 356° |
| 2026-03-26 05:12 | 59.03397 | 5.63227 | 10453 ft | 253 kts | 0° |
| 2026-03-26 05:12 | 59.05118 | 5.64231 | 11512 ft | 267 kts | 24° |
| 2026-03-26 05:13 | 59.06570 | 5.66594 | 12574 ft | 283 kts | 46° |
| 2026-03-26 05:13 | 59.07491 | 5.70080 | 13605 ft | 299 kts | 68° |
| 2026-03-26 05:13 | 59.07707 | 5.74182 | 14483 ft | 319 kts | 94° |
| 2026-03-26 05:13 | 59.06852 | 5.78208 | 15459 ft | 331 kts | 126° |
| 2026-03-26 05:14 | 59.05088 | 5.81082 | 16265 ft | 340 kts | 155° |
| 2026-03-26 05:14 | 59.02740 | 5.82248 | 16524 ft | 361 kts | 179° |
| 2026-03-26 05:14 | 59.00151 | 5.82330 | 16787 ft | 382 kts | 183° |
| 2026-03-26 05:14 | 58.97467 | 5.82284 | 17598 ft | 388 kts | 184° |
| 2026-03-26 05:15 | 58.94766 | 5.82266 | 18549 ft | 387 kts | 183° |
| 2026-03-26 05:15 | 58.92079 | 5.82303 | 19441 ft | 388 kts | 182° |
| 2026-03-26 05:15 | 58.89370 | 5.82385 | 20206 ft | 391 kts | 181° |
| 2026-03-26 05:15 | 58.86622 | 5.82496 | 20826 ft | 398 kts | 181° |
| 2026-03-26 05:16 | 58.83877 | 5.82622 | 21548 ft | 401 kts | 181° |
| 2026-03-26 05:16 | 58.81078 | 5.82751 | 22286 ft | 404 kts | 181° |
| 2026-03-26 05:16 | 58.78256 | 5.82878 | 22992 ft | 407 kts | 181° |
| 2026-03-26 05:16 | 58.75407 | 5.83030 | 23532 ft | 413 kts | 178° |
| 2026-03-26 05:17 | 58.72574 | 5.84249 | 23867 ft | 427 kts | 158° |
| 2026-03-26 05:17 | 58.69920 | 5.86951 | 24254 ft | 435 kts | 152° |
| 2026-03-26 05:17 | 58.67274 | 5.89860 | 24685 ft | 441 kts | 151° |
| 2026-03-26 05:17 | 58.64594 | 5.92814 | 25105 ft | 447 kts | 151° |
| 2026-03-26 05:18 | 58.61875 | 5.95784 | 25507 ft | 453 kts | 151° |
| 2026-03-26 05:18 | 58.59112 | 5.98769 | 25884 ft | 459 kts | 151° |
| 2026-03-26 05:18 | 58.56310 | 6.01769 | 26265 ft | 464 kts | 152° |
| 2026-03-26 05:18 | 58.53467 | 6.04794 | 26652 ft | 470 kts | 152° |
| 2026-03-26 05:19 | 58.50591 | 6.07842 | 27015 ft | 475 kts | 152° |
| 2026-03-26 05:19 | 58.47680 | 6.10922 | 27364 ft | 481 kts | 151° |
| 2026-03-26 05:19 | 58.44735 | 6.14033 | 27691 ft | 487 kts | 151° |
| 2026-03-26 05:19 | 58.41756 | 6.17176 | 28046 ft | 492 kts | 151° |
| 2026-03-26 05:20 | 58.38739 | 6.20355 | 28352 ft | 498 kts | 151° |
| 2026-03-26 05:20 | 58.35691 | 6.23559 | 28611 ft | 504 kts | 151° |
| 2026-03-26 05:20 | 58.32562 | 6.26607 | 29068 ft | 505 kts | 156° |
| 2026-03-26 05:20 | 58.29320 | 6.29223 | 29351 ft | 509 kts | 159° |
| 2026-03-26 05:21 | 58.25993 | 6.31635 | 29707 ft | 512 kts | 160° |
| 2026-03-26 05:21 | 58.22646 | 6.33980 | 30099 ft | 513 kts | 160° |
| 2026-03-26 05:21 | 58.19298 | 6.36341 | 30457 ft | 514 kts | 160° |
| 2026-03-26 05:21 | 58.15970 | 6.38736 | 30617 ft | 507 kts | 159° |
| 2026-03-26 05:22 | 58.09418 | 6.43575 | 30613 ft | 509 kts | 159° |
| 2026-03-26 05:22 | 58.02791 | 6.48529 | 30606 ft | 513 kts | 159° |
| 2026-03-26 05:23 | 57.96206 | 6.53432 | 30624 ft | 511 kts | 159° |
| 2026-03-26 05:23 | 57.89578 | 6.58336 | 30632 ft | 512 kts | 159° |
| 2026-03-26 05:24 | 57.82938 | 6.63224 | 30615 ft | 513 kts | 159° |
| 2026-03-26 05:24 | 57.76272 | 6.68111 | 30651 ft | 515 kts | 159° |
| 2026-03-26 05:25 | 57.70760 | 6.72138 | 30621 ft | 510 kts | 159° |
| 2026-03-26 05:25 | 57.64192 | 6.76921 | 30614 ft | 501 kts | 159° |
| 2026-03-26 05:26 | 57.57702 | 6.81631 | 30628 ft | 504 kts | 159° |
| 2026-03-26 05:27 | 57.48129 | 6.89951 | 30633 ft | 508 kts | 144° |
| 2026-03-26 05:27 | 57.42871 | 6.98569 | 30621 ft | 504 kts | 134° |
| 2026-03-26 05:28 | 57.37743 | 7.07549 | 30643 ft | 508 kts | 135° |
| 2026-03-26 05:28 | 57.32598 | 7.16376 | 30623 ft | 503 kts | 135° |
| 2026-03-26 05:29 | 57.27413 | 7.25191 | 30648 ft | 507 kts | 137° |
| 2026-03-26 05:29 | 57.22185 | 7.34043 | 30640 ft | 514 kts | 136° |
| 2026-03-26 05:30 | 57.16910 | 7.42944 | 30625 ft | 507 kts | 137° |
| 2026-03-26 05:30 | 57.11732 | 7.51650 | 30635 ft | 505 kts | 137° |
| 2026-03-26 05:31 | 57.06560 | 7.60316 | 30610 ft | 503 kts | 137° |
| 2026-03-26 05:31 | 57.01376 | 7.68966 | 30648 ft | 506 kts | 137° |
| 2026-03-26 05:32 | 56.96166 | 7.77626 | 30638 ft | 507 kts | 137° |
| 2026-03-26 05:32 | 56.90882 | 7.86374 | 30638 ft | 516 kts | 137° |
| 2026-03-26 05:33 | 56.85609 | 7.95067 | 30618 ft | 504 kts | 137° |
| 2026-03-26 05:33 | 56.80390 | 8.03639 | 30630 ft | 503 kts | 137° |
| 2026-03-26 05:34 | 56.75205 | 8.12121 | 30625 ft | 500 kts | 137° |
| 2026-03-26 05:34 | 56.70039 | 8.20540 | 30645 ft | 503 kts | 137° |
| 2026-03-26 05:35 | 56.64807 | 8.29034 | 30644 ft | 506 kts | 137° |
| 2026-03-26 05:35 | 56.59567 | 8.37509 | 30433 ft | 507 kts | 138° |
| 2026-03-26 05:35 | 56.56915 | 8.41786 | 29377 ft | 506 kts | 138° |
| 2026-03-26 05:36 | 56.54301 | 8.45993 | 27934 ft | 504 kts | 138° |
| 2026-03-26 05:36 | 56.51685 | 8.50194 | 26527 ft | 499 kts | 139° |
| 2026-03-26 05:36 | 56.49107 | 8.54328 | 25210 ft | 493 kts | 139° |
| 2026-03-26 05:36 | 56.46565 | 8.58395 | 24012 ft | 481 kts | 139° |
| 2026-03-26 05:37 | 56.44085 | 8.62358 | 22757 ft | 471 kts | 139° |
| 2026-03-26 05:37 | 56.41628 | 8.66275 | 21431 ft | 469 kts | 140° |
| 2026-03-26 05:37 | 56.39222 | 8.70107 | 20399 ft | 451 kts | 140° |
| 2026-03-26 05:37 | 56.36896 | 8.73805 | 19224 ft | 442 kts | 141° |
| 2026-03-26 05:38 | 56.34588 | 8.77466 | 18133 ft | 440 kts | 141° |
| 2026-03-26 05:38 | 56.32308 | 8.81076 | 16950 ft | 431 kts | 141° |
| 2026-03-26 05:38 | 56.30085 | 8.84592 | 15893 ft | 420 kts | 141° |
| 2026-03-26 05:38 | 56.27921 | 8.88009 | 14857 ft | 410 kts | 141° |
| 2026-03-26 05:39 | 56.25801 | 8.91349 | 14004 ft | 399 kts | 141° |
| 2026-03-26 05:39 | 56.23744 | 8.94587 | 13188 ft | 388 kts | 140° |
| 2026-03-26 05:39 | 56.21725 | 8.97758 | 12380 ft | 384 kts | 140° |
| 2026-03-26 05:39 | 56.19717 | 9.00906 | 11622 ft | 382 kts | 140° |
| 2026-03-26 05:40 | 56.17743 | 9.03997 | 10862 ft | 372 kts | 141° |
| 2026-03-26 05:40 | 56.15813 | 9.07017 | 10124 ft | 368 kts | 141° |
| 2026-03-26 05:40 | 56.13918 | 9.09978 | 9967 ft | 354 kts | 141° |
| 2026-03-26 05:40 | 56.12105 | 9.12810 | 9804 ft | 336 kts | 141° |
| 2026-03-26 05:41 | 56.10420 | 9.15440 | 9662 ft | 316 kts | 141° |
| 2026-03-26 05:41 | 56.08794 | 9.17972 | 9320 ft | 306 kts | 141° |
| 2026-03-26 05:41 | 56.07204 | 9.20442 | 8939 ft | 300 kts | 141° |
| 2026-03-26 05:41 | 56.05639 | 9.22871 | 8576 ft | 296 kts | 141° |
| 2026-03-26 05:42 | 56.04090 | 9.25271 | 8171 ft | 293 kts | 141° |
| 2026-03-26 05:42 | 56.02546 | 9.27661 | 7765 ft | 293 kts | 141° |
| 2026-03-26 05:42 | 56.01005 | 9.30046 | 7371 ft | 293 kts | 141° |
| 2026-03-26 05:42 | 55.99473 | 9.32414 | 6978 ft | 288 kts | 141° |
| 2026-03-26 05:43 | 55.97977 | 9.34725 | 6600 ft | 281 kts | 141° |
| 2026-03-26 05:43 | 55.96513 | 9.36985 | 6216 ft | 277 kts | 141° |
| 2026-03-26 05:43 | 55.95052 | 9.39236 | 5834 ft | 278 kts | 141° |
| 2026-03-26 05:43 | 55.93583 | 9.41498 | 5427 ft | 278 kts | 141° |
| 2026-03-26 05:44 | 55.92125 | 9.43742 | 5098 ft | 276 kts | 140° |
| 2026-03-26 05:44 | 55.90692 | 9.45945 | 4768 ft | 268 kts | 140° |
| 2026-03-26 05:44 | 55.89299 | 9.48086 | 4467 ft | 263 kts | 140° |
| 2026-03-26 05:44 | 55.87909 | 9.50216 | 4131 ft | 264 kts | 140° |
| 2026-03-26 05:45 | 55.86524 | 9.52338 | 3950 ft | 259 kts | 140° |
| 2026-03-26 05:45 | 55.85138 | 9.54405 | 3960 ft | 262 kts | 147° |
| 2026-03-26 05:45 | 55.83476 | 9.55497 | 3933 ft | 250 kts | 184° |
| 2026-03-26 05:45 | 55.81832 | 9.55115 | 3947 ft | 232 kts | 204° |
| 2026-03-26 05:46 | 55.80297 | 9.54283 | 3853 ft | 228 kts | 207° |
| 2026-03-26 05:46 | 55.78828 | 9.53448 | 3738 ft | 214 kts | 207° |
| 2026-03-26 05:46 | 55.77453 | 9.52683 | 3663 ft | 200 kts | 208° |
| 2026-03-26 05:46 | 55.76154 | 9.51927 | 3557 ft | 192 kts | 214° |
| 2026-03-26 05:47 | 55.75277 | 9.50441 | 3407 ft | 164 kts | 261° |
| 2026-03-26 05:47 | 55.75153 | 9.48511 | 3275 ft | 158 kts | 274° |
| 2026-03-26 05:47 | 55.75064 | 9.46584 | 3123 ft | 153 kts | 274° |
| 2026-03-26 05:47 | 55.74990 | 9.44758 | 3013 ft | 142 kts | 275° |
| 2026-03-26 05:48 | 55.74929 | 9.43086 | 2989 ft | 131 kts | 275° |
| 2026-03-26 05:48 | 55.74876 | 9.41492 | 2958 ft | 130 kts | 275° |
| 2026-03-26 05:48 | 55.74823 | 9.39845 | 2805 ft | 136 kts | 275° |
| 2026-03-26 05:48 | 55.74767 | 9.38189 | 2601 ft | 131 kts | 275° |
| 2026-03-26 05:49 | 55.74714 | 9.36615 | 2432 ft | 126 kts | 275° |
| 2026-03-26 05:49 | 55.74664 | 9.35058 | 2256 ft | 126 kts | 275° |
| 2026-03-26 05:49 | 55.74614 | 9.33498 | 2103 ft | 125 kts | 275° |
| 2026-03-26 05:49 | 55.74564 | 9.31958 | 1913 ft | 128 kts | 275° |
| 2026-03-26 05:50 | 55.74513 | 9.30375 | 1724 ft | 128 kts | 275° |
| 2026-03-26 05:50 | 55.74462 | 9.28794 | 1538 ft | 129 kts | 274° |
| 2026-03-26 05:50 | 55.74411 | 9.27206 | 1361 ft | 130 kts | 274° |
| 2026-03-26 05:50 | 55.74359 | 9.25586 | 1160 ft | 129 kts | 273° |
| 2026-03-26 05:51 | 55.74310 | 9.24044 | 972 ft | 125 kts | 272° |
| 2026-03-26 05:51 | 55.74262 | 9.22564 | 788 ft | 114 kts | 271° |
| 2026-03-26 05:51 | 55.74220 | 9.21244 | 639 ft | 101 kts | 271° |
| 2026-03-26 05:51 | 55.74183 | 9.20054 | 529 ft | 96 kts | 270° |
| 2026-03-26 05:52 | 55.74146 | 9.18852 | 413 ft | 99 kts | 269° |
| 2026-03-26 05:52 | 55.74108 | 9.17640 | 292 ft | 97 kts | 268° |
| 2026-03-26 05:52 | 55.74073 | 9.16489 | 215 ft | 77 kts | 267° |
| 2026-03-26 05:52 | 55.74054 | 9.15864 | 215 ft | 39 kts | 266° |
| 2026-03-26 05:53 | 55.74037 | 9.15414 | 215 ft | 34 kts | 266° |
| 2026-03-26 05:53 | 55.74013 | 9.15046 | 220 ft | 28 kts | 244° |
| 2026-03-26 05:53 | 55.73938 | 9.14811 | 221 ft | 17 kts | 239° |
| 2026-03-26 05:53 | 55.73883 | 9.14623 | 219 ft | 17 kts | 248° |
| 2026-03-26 05:54 | 55.73852 | 9.14427 | 215 ft | 16 kts | 258° |
| 2026-03-26 05:54 | 55.73842 | 9.14231 | 215 ft | 16 kts | 268° |
| 2026-03-26 05:54 | 55.73839 | 9.14043 | 215 ft | 14 kts | 266° |
| 2026-03-26 05:54 | 55.73836 | 9.13937 | 215 ft | 8 kts | 267° |
| 2026-03-26 05:55 | 55.73815 | 9.13850 | 215 ft | 7 kts | 216° |
| 2026-03-26 05:55 | 55.73773 | 9.13839 | 217 ft | 6 kts | 177° |
| 2026-03-26 05:55 | 55.73752 | 9.13841 | 218 ft | 0 kts | 176° |